KPVB

Platteville Municipal Airport

Platteville, Wisconsin, USA
METAR KPVB 182015Z AUTO 05011KT 1 3/4SM OVC010 M06/M07 A3013 RMK AO1 T10631071
Observed Flight Rules
Jan-18 @ 20:15 UTC (25 minutes ago) Instrument Flight Rules
Wind Visibility Clouds
50° at 11 knots 1 3/4 miles
  • Overcast at 1,000' AGL
Temperatures Readings
Current -6°C / 21°F
Dewpoint -7°C / 19°F
Humidity 93%
Altimeter 30.13" Hg
Pressure 1020.32 hPa
Elevation 313
METAR KPVB 182015Z AUTO 05011KT 1 3/4SM OVC010 M06/M07 A3013 RMK AO1 T10631071
Observed Flight Rules
Jan-18 @ 20:15 UTC
(25 minutes ago)
IFR
Wind Visibility
50° at 11 knots 1 3/4 miles
Clouds
  • Overcast at 1,000' AGL
Temperature Dewpoint
-6°C / 21°F -7°C / 19°F
Humidity Altimeter Pressure
93% 30.13" Hg 1020.32 hPa